Kodiak Airport Kodiak US
ICAO: PADQ
IATA:
Category: Medium
Scheduled Services:

Elevation: 78 ft
TransAlt. 18000 ft.

Airport Communications:
ANCHORAGE CNTR:125.1
ATIS:135.5
CTAF:119.8
KENAI RDO:119.8
GND:121.9
TWEB:117.1
OPS:156.8
KENAI RDO:122.2
TWR:119.8
UNICOM:122.8

PADQ Zoom In..

Runways:

(A) RW 07 length 7550 ft width 150 ft
---- / hdg 74

(B) RW 11 length 5400 ft width 150 ft
---- / hdg 109

(C) RW 18 length 5010 ft width 150 ft
---- / hdg 184

(D) RW 25 length 7550 ft width 150 ft
ILS 110.90 / hdg 254

(E) RW 29 length 5400 ft width 150 ft
---- / hdg 289

(F) RW 36 length 5010 ft width 150 ft
---- / hdg 4

Location; PADQ
Day. 29 / Time. 22.01 Zulu
* Altimeter: 29.92
* Temperature: 13° c. 55.4°f.
* Wind from: 040° Speed 06 kn.
Dewpoint: 06° c.
Visibility: 7 Statute Miles.
Clouds: Broken 7000 ft.
Clouds: Overcast 8000 ft.
Conditions: Light Rain.

PADQ 292201Z 04006KT 7SM -RA BKN070 OVC080 13/06 A2992 RMK AO2 RAB2155 P0001 T01330061


Wind From 040°
Speed 06 kn.

 
 
jpsmedia worldairports.se 2020   terms of use